sensor_id;sensor_type;location;lat;lon;timestamp;temperature;humidity
79140;HTU21D;68546;59.142;37.948;2023-06-14T00:02:04;17.47;46.12
79140;HTU21D;68546;59.142;37.948;2023-06-14T00:04:34;17.48;46.14
79140;HTU21D;68546;59.142;37.948;2023-06-14T00:07:01;17.48;46.12
79140;HTU21D;68546;59.142;37.948;2023-06-14T00:09:27;17.48;46.10
79140;HTU21D;68546;59.142;37.948;2023-06-14T00:11:53;17.49;46.09
79140;HTU21D;68546;59.142;37.948;2023-06-14T00:14:20;17.51;46.02
79140;HTU21D;68546;59.142;37.948;2023-06-14T00:16:46;17.53;45.99
79140;HTU21D;68546;59.142;37.948;2023-06-14T00:19:13;17.54;45.96
79140;HTU21D;68546;59.142;37.948;2023-06-14T00:21:40;17.56;45.90
79140;HTU21D;68546;59.142;37.948;2023-06-14T00:24:07;17.58;45.84
79140;HTU21D;68546;59.142;37.948;2023-06-14T00:26:34;17.61;45.78
79140;HTU21D;68546;59.142;37.948;2023-06-14T00:29:00;17.61;45.71
79140;HTU21D;68546;59.142;37.948;2023-06-14T00:31:26;17.62;45.70
79140;HTU21D;68546;59.142;37.948;2023-06-14T00:33:54;17.62;45.67
79140;HTU21D;68546;59.142;37.948;2023-06-14T00:36:20;17.65;45.64
79140;HTU21D;68546;59.142;37.948;2023-06-14T00:38:46;17.66;45.61
79140;HTU21D;68546;59.142;37.948;2023-06-14T00:41:12;17.68;45.59
79140;HTU21D;68546;59.142;37.948;2023-06-14T00:43:39;17.68;45.57
79140;HTU21D;68546;59.142;37.948;2023-06-14T00:46:05;17.72;45.48
79140;HTU21D;68546;59.142;37.948;2023-06-14T00:48:32;17.74;45.43
79140;HTU21D;68546;59.142;37.948;2023-06-14T00:51:00;17.76;45.39
79140;HTU21D;68546;59.142;37.948;2023-06-14T00:53:30;17.77;45.32
79140;HTU21D;68546;59.142;37.948;2023-06-14T00:56:00;17.79;45.25
79140;HTU21D;68546;59.142;37.948;2023-06-14T00:58:26;17.81;45.12
79140;HTU21D;68546;59.142;37.948;2023-06-14T01:00:53;17.82;44.98
79140;HTU21D;68546;59.142;37.948;2023-06-14T01:03:20;17.83;44.84
79140;HTU21D;68546;59.142;37.948;2023-06-14T01:05:53;17.84;44.71
79140;HTU21D;68546;59.142;37.948;2023-06-14T01:11:16;17.85;44.52
79140;HTU21D;68546;59.142;37.948;2023-06-14T01:13:46;17.83;44.44
79140;HTU21D;68546;59.142;37.948;2023-06-14T01:16:14;17.83;44.29
79140;HTU21D;68546;59.142;37.948;2023-06-14T01:18:40;17.84;44.16
79140;HTU21D;68546;59.142;37.948;2023-06-14T01:21:20;17.84;44.05
79140;HTU21D;68546;59.142;37.948;2023-06-14T01:23:48;17.84;43.93
79140;HTU21D;68546;59.142;37.948;2023-06-14T01:26:20;17.84;43.83
79140;HTU21D;68546;59.142;37.948;2023-06-14T01:28:47;17.84;43.74
79140;HTU21D;68546;59.142;37.948;2023-06-14T01:31:19;17.85;43.67
79140;HTU21D;68546;59.142;37.948;2023-06-14T01:33:49;17.85;43.59
79140;HTU21D;68546;59.142;37.948;2023-06-14T01:36:18;17.89;43.54
79140;HTU21D;68546;59.142;37.948;2023-06-14T01:38:46;17.95;43.46
79140;HTU21D;68546;59.142;37.948;2023-06-14T01:41:15;17.98;43.34
79140;HTU21D;68546;59.142;37.948;2023-06-14T01:43:42;18.04;43.25
79140;HTU21D;68546;59.142;37.948;2023-06-14T01:46:09;18.06;43.14
79140;HTU21D;68546;59.142;37.948;2023-06-14T01:48:36;18.08;43.07
79140;HTU21D;68546;59.142;37.948;2023-06-14T01:51:03;18.12;43.04
79140;HTU21D;68546;59.142;37.948;2023-06-14T01:53:29;18.19;42.96
79140;HTU21D;68546;59.142;37.948;2023-06-14T01:55:56;18.23;42.88
79140;HTU21D;68546;59.142;37.948;2023-06-14T01:58:22;18.26;42.82
79140;HTU21D;68546;59.142;37.948;2023-06-14T02:00:50;18.35;42.84
79140;HTU21D;68546;59.142;37.948;2023-06-14T02:03:17;18.44;42.74
79140;HTU21D;68546;59.142;37.948;2023-06-14T02:05:45;18.58;42.68
79140;HTU21D;68546;59.142;37.948;2023-06-14T02:08:11;18.68;42.52
79140;HTU21D;68546;59.142;37.948;2023-06-14T02:10:38;18.74;42.43
79140;HTU21D;68546;59.142;37.948;2023-06-14T02:13:04;18.81;42.31
79140;HTU21D;68546;59.142;37.948;2023-06-14T02:15:30;18.85;42.19
79140;HTU21D;68546;59.142;37.948;2023-06-14T02:18:01;18.88;42.10
79140;HTU21D;68546;59.142;37.948;2023-06-14T02:20:28;18.93;42.05
79140;HTU21D;68546;59.142;37.948;2023-06-14T02:22:56;19.03;42.08
79140;HTU21D;68546;59.142;37.948;2023-06-14T02:25:23;19.15;42.00
79140;HTU21D;68546;59.142;37.948;2023-06-14T02:27:49;19.22;41.85
79140;HTU21D;68546;59.142;37.948;2023-06-14T02:30:15;19.25;41.69
79140;HTU21D;68546;59.142;37.948;2023-06-14T02:32:42;19.28;41.68
79140;HTU21D;68546;59.142;37.948;2023-06-14T02:35:09;19.35;41.71
79140;HTU21D;68546;59.142;37.948;2023-06-14T02:37:36;19.45;41.70
79140;HTU21D;68546;59.142;37.948;2023-06-14T02:40:02;19.53;41.56
79140;HTU21D;68546;59.142;37.948;2023-06-14T02:42:31;19.61;41.53
79140;HTU21D;68546;59.142;37.948;2023-06-14T02:44:57;19.74;41.43
79140;HTU21D;68546;59.142;37.948;2023-06-14T02:47:23;19.82;41.33
79140;HTU21D;68546;59.142;37.948;2023-06-14T02:49:50;19.86;41.20
79140;HTU21D;68546;59.142;37.948;2023-06-14T02:52:16;19.99;41.29
79140;HTU21D;68546;59.142;37.948;2023-06-14T02:54:43;20.22;41.19
79140;HTU21D;68546;59.142;37.948;2023-06-14T02:57:10;20.50;40.97
79140;HTU21D;68546;59.142;37.948;2023-06-14T02:59:38;20.68;40.44
79140;HTU21D;68546;59.142;37.948;2023-06-14T03:02:15;20.73;40.07
79140;HTU21D;68546;59.142;37.948;2023-06-14T03:04:42;20.72;39.59
79140;HTU21D;68546;59.142;37.948;2023-06-14T03:07:14;20.68;39.44
79140;HTU21D;68546;59.142;37.948;2023-06-14T03:09:48;20.65;39.58
79140;HTU21D;68546;59.142;37.948;2023-06-14T03:12:16;20.70;39.63
79140;HTU21D;68546;59.142;37.948;2023-06-14T03:14:42;20.72;39.68
79140;HTU21D;68546;59.142;37.948;2023-06-14T03:17:09;20.76;39.58
79140;HTU21D;68546;59.142;37.948;2023-06-14T03:19:38;20.78;39.47
79140;HTU21D;68546;59.142;37.948;2023-06-14T03:22:07;20.83;39.47
79140;HTU21D;68546;59.142;37.948;2023-06-14T03:24:34;20.85;39.45
79140;HTU21D;68546;59.142;37.948;2023-06-14T03:27:07;20.86;39.39
79140;HTU21D;68546;59.142;37.948;2023-06-14T03:29:37;20.91;39.33
79140;HTU21D;68546;59.142;37.948;2023-06-14T03:32:04;20.94;39.37
79140;HTU21D;68546;59.142;37.948;2023-06-14T03:34:36;21.01;39.46
79140;HTU21D;68546;59.142;37.948;2023-06-14T03:37:05;21.09;39.45
79140;HTU21D;68546;59.142;37.948;2023-06-14T03:39:32;21.20;39.31
79140;HTU21D;68546;59.142;37.948;2023-06-14T03:41:59;21.28;39.30
79140;HTU21D;68546;59.142;37.948;2023-06-14T03:44:26;21.44;39.19
79140;HTU21D;68546;59.142;37.948;2023-06-14T03:46:52;21.66;38.95
79140;HTU21D;68546;59.142;37.948;2023-06-14T03:49:19;21.84;38.62
79140;HTU21D;68546;59.142;37.948;2023-06-14T03:51:46;22.01;38.32
79140;HTU21D;68546;59.142;37.948;2023-06-14T03:54:19;22.05;38.05
79140;HTU21D;68546;59.142;37.948;2023-06-14T03:56:48;22.09;37.92
79140;HTU21D;68546;59.142;37.948;2023-06-14T03:59:14;22.13;37.69
79140;HTU21D;68546;59.142;37.948;2023-06-14T04:01:40;22.22;37.43
79140;HTU21D;68546;59.142;37.948;2023-06-14T04:04:14;22.32;37.20
79140;HTU21D;68546;59.142;37.948;2023-06-14T04:06:43;22.38;36.85
79140;HTU21D;68546;59.142;37.948;2023-06-14T04:09:10;22.46;36.35
79140;HTU21D;68546;59.142;37.948;2023-06-14T04:11:37;22.50;36.17
79140;HTU21D;68546;59.142;37.948;2023-06-14T04:14:03;22.54;35.96
79140;HTU21D;68546;59.142;37.948;2023-06-14T04:16:30;22.60;35.48
79140;HTU21D;68546;59.142;37.948;2023-06-14T04:18:56;22.63;34.99
79140;HTU21D;68546;59.142;37.948;2023-06-14T04:21:24;22.64;35.04
79140;HTU21D;68546;59.142;37.948;2023-06-14T04:23:53;22.68;34.98
79140;HTU21D;68546;59.142;37.948;2023-06-14T04:26:24;22.72;34.94
79140;HTU21D;68546;59.142;37.948;2023-06-14T04:28:56;22.79;35.04
79140;HTU21D;68546;59.142;37.948;2023-06-14T04:31:31;22.86;34.89
79140;HTU21D;68546;59.142;37.948;2023-06-14T04:34:04;22.94;35.02
79140;HTU21D;68546;59.142;37.948;2023-06-14T04:36:35;23.03;35.14
79140;HTU21D;68546;59.142;37.948;2023-06-14T04:39:05;23.13;34.83
79140;HTU21D;68546;59.142;37.948;2023-06-14T04:41:32;23.20;34.45
79140;HTU21D;68546;59.142;37.948;2023-06-14T04:44:00;23.22;34.37
79140;HTU21D;68546;59.142;37.948;2023-06-14T04:46:29;23.23;34.15
79140;HTU21D;68546;59.142;37.948;2023-06-14T04:48:58;23.25;34.11
79140;HTU21D;68546;59.142;37.948;2023-06-14T04:51:28;23.28;34.18
79140;HTU21D;68546;59.142;37.948;2023-06-14T04:53:59;23.32;34.12
79140;HTU21D;68546;59.142;37.948;2023-06-14T04:56:27;23.38;34.20
79140;HTU21D;68546;59.142;37.948;2023-06-14T04:58:55;23.44;34.37
79140;HTU21D;68546;59.142;37.948;2023-06-14T05:01:22;23.53;34.44
79140;HTU21D;68546;59.142;37.948;2023-06-14T05:03:49;23.62;34.84
79140;HTU21D;68546;59.142;37.948;2023-06-14T05:06:15;23.73;35.25
79140;HTU21D;68546;59.142;37.948;2023-06-14T05:08:43;23.84;35.52
79140;HTU21D;68546;59.142;37.948;2023-06-14T05:11:10;23.92;35.57
79140;HTU21D;68546;59.142;37.948;2023-06-14T05:13:36;24.01;35.93
79140;HTU21D;68546;59.142;37.948;2023-06-14T05:16:03;24.08;36.05
79140;HTU21D;68546;59.142;37.948;2023-06-14T05:18:29;24.14;36.14
79140;HTU21D;68546;59.142;37.948;2023-06-14T05:20:56;24.20;36.28
79140;HTU21D;68546;59.142;37.948;2023-06-14T05:23:22;24.24;36.36
79140;HTU21D;68546;59.142;37.948;2023-06-14T05:25:48;24.29;36.50
79140;HTU21D;68546;59.142;37.948;2023-06-14T05:28:14;24.33;36.59
79140;HTU21D;68546;59.142;37.948;2023-06-14T05:30:42;24.34;36.59
79140;HTU21D;68546;59.142;37.948;2023-06-14T05:33:08;24.36;36.50
79140;HTU21D;68546;59.142;37.948;2023-06-14T05:35:34;24.38;36.63
79140;HTU21D;68546;59.142;37.948;2023-06-14T05:38:01;24.39;36.43
79140;HTU21D;68546;59.142;37.948;2023-06-14T05:40:27;24.42;36.29
79140;HTU21D;68546;59.142;37.948;2023-06-14T05:42:53;24.44;36.45
79140;HTU21D;68546;59.142;37.948;2023-06-14T05:45:19;24.47;36.53
79140;HTU21D;68546;59.142;37.948;2023-06-14T05:47:47;24.53;36.60
79140;HTU21D;68546;59.142;37.948;2023-06-14T05:50:13;24.61;36.51
79140;HTU21D;68546;59.142;37.948;2023-06-14T05:52:40;24.69;36.18
79140;HTU21D;68546;59.142;37.948;2023-06-14T05:55:07;24.77;35.80
79140;HTU21D;68546;59.142;37.948;2023-06-14T05:57:33;24.85;35.37
79140;HTU21D;68546;59.142;37.948;2023-06-14T05:59:59;24.93;35.24
79140;HTU21D;68546;59.142;37.948;2023-06-14T06:02:26;25.02;35.32
79140;HTU21D;68546;59.142;37.948;2023-06-14T06:04:52;25.12;35.21
79140;HTU21D;68546;59.142;37.948;2023-06-14T06:07:18;25.19;35.04
79140;HTU21D;68546;59.142;37.948;2023-06-14T06:09:44;25.29;34.86
79140;HTU21D;68546;59.142;37.948;2023-06-14T06:12:12;25.36;34.57
79140;HTU21D;68546;59.142;37.948;2023-06-14T06:14:38;25.44;34.34
79140;HTU21D;68546;59.142;37.948;2023-06-14T06:17:05;25.51;33.92
79140;HTU21D;68546;59.142;37.948;2023-06-14T06:19:32;25.58;33.80
79140;HTU21D;68546;59.142;37.948;2023-06-14T06:21:58;25.66;33.79
79140;HTU21D;68546;59.142;37.948;2023-06-14T06:24:25;25.73;33.60
79140;HTU21D;68546;59.142;37.948;2023-06-14T06:26:51;25.81;33.49
79140;HTU21D;68546;59.142;37.948;2023-06-14T06:29:17;25.89;33.13
79140;HTU21D;68546;59.142;37.948;2023-06-14T06:31:44;25.97;32.92
79140;HTU21D;68546;59.142;37.948;2023-06-14T06:34:11;26.03;32.48
79140;HTU21D;68546;59.142;37.948;2023-06-14T06:36:38;26.07;32.06
79140;HTU21D;68546;59.142;37.948;2023-06-14T06:39:04;26.09;31.51
79140;HTU21D;68546;59.142;37.948;2023-06-14T06:41:38;26.13;30.96
79140;HTU21D;68546;59.142;37.948;2023-06-14T06:44:06;26.12;30.77
79140;HTU21D;68546;59.142;37.948;2023-06-14T06:46:33;26.09;30.46
79140;HTU21D;68546;59.142;37.948;2023-06-14T06:49:00;26.09;29.99
79140;HTU21D;68546;59.142;37.948;2023-06-14T06:51:27;26.08;29.62
79140;HTU21D;68546;59.142;37.948;2023-06-14T06:53:54;26.06;29.43
79140;HTU21D;68546;59.142;37.948;2023-06-14T06:56:21;26.07;29.37
79140;HTU21D;68546;59.142;37.948;2023-06-14T06:58:50;26.07;29.29
79140;HTU21D;68546;59.142;37.948;2023-06-14T07:01:17;26.09;29.25
79140;HTU21D;68546;59.142;37.948;2023-06-14T07:03:45;26.10;29.22
79140;HTU21D;68546;59.142;37.948;2023-06-14T07:06:11;26.12;29.10
79140;HTU21D;68546;59.142;37.948;2023-06-14T07:08:38;26.13;28.97
79140;HTU21D;68546;59.142;37.948;2023-06-14T07:11:05;26.16;28.45
79140;HTU21D;68546;59.142;37.948;2023-06-14T07:13:32;26.16;28.07
79140;HTU21D;68546;59.142;37.948;2023-06-14T07:15:59;26.17;27.70
79140;HTU21D;68546;59.142;37.948;2023-06-14T07:18:27;26.20;27.60
79140;HTU21D;68546;59.142;37.948;2023-06-14T07:20:54;26.23;27.36
79140;HTU21D;68546;59.142;37.948;2023-06-14T07:23:20;26.23;26.95
79140;HTU21D;68546;59.142;37.948;2023-06-14T07:25:47;26.23;26.98
79140;HTU21D;68546;59.142;37.948;2023-06-14T07:28:13;26.23;25.88
79140;HTU21D;68546;59.142;37.948;2023-06-14T07:30:39;26.23;25.52
79140;HTU21D;68546;59.142;37.948;2023-06-14T07:33:06;26.24;25.23
79140;HTU21D;68546;59.142;37.948;2023-06-14T07:35:34;26.21;25.33
79140;HTU21D;68546;59.142;37.948;2023-06-14T07:38:01;26.23;25.30
79140;HTU21D;68546;59.142;37.948;2023-06-14T07:40:27;26.24;24.89
79140;HTU21D;68546;59.142;37.948;2023-06-14T07:42:53;26.25;24.21
79140;HTU21D;68546;59.142;37.948;2023-06-14T07:45:20;26.24;23.45
79140;HTU21D;68546;59.142;37.948;2023-06-14T07:47:47;26.20;23.50
79140;HTU21D;68546;59.142;37.948;2023-06-14T07:50:13;26.17;23.59
79140;HTU21D;68546;59.142;37.948;2023-06-14T07:52:39;26.16;23.08
79140;HTU21D;68546;59.142;37.948;2023-06-14T07:55:06;26.15;22.95
79140;HTU21D;68546;59.142;37.948;2023-06-14T07:57:32;26.10;23.10
79140;HTU21D;68546;59.142;37.948;2023-06-14T07:59:59;26.07;23.84
79140;HTU21D;68546;59.142;37.948;2023-06-14T08:02:26;26.03;23.57
79140;HTU21D;68546;59.142;37.948;2023-06-14T08:04:52;26.02;23.96
79140;HTU21D;68546;59.142;37.948;2023-06-14T08:07:19;26.02;23.82
79140;HTU21D;68546;59.142;37.948;2023-06-14T08:09:46;26.02;23.66
79140;HTU21D;68546;59.142;37.948;2023-06-14T08:12:12;26.03;23.83
79140;HTU21D;68546;59.142;37.948;2023-06-14T08:14:42;26.01;23.77
79140;HTU21D;68546;59.142;37.948;2023-06-14T08:17:08;25.99;23.78
79140;HTU21D;68546;59.142;37.948;2023-06-14T08:19:35;26.01;23.96
79140;HTU21D;68546;59.142;37.948;2023-06-14T08:22:02;26.04;23.89
79140;HTU21D;68546;59.142;37.948;2023-06-14T08:24:29;26.06;24.12
79140;HTU21D;68546;59.142;37.948;2023-06-14T08:26:57;26.09;23.82
79140;HTU21D;68546;59.142;37.948;2023-06-14T08:29:23;26.09;23.79
79140;HTU21D;68546;59.142;37.948;2023-06-14T08:31:50;26.09;24.00
79140;HTU21D;68546;59.142;37.948;2023-06-14T08:34:16;26.11;23.76
79140;HTU21D;68546;59.142;37.948;2023-06-14T08:36:42;26.11;23.42
79140;HTU21D;68546;59.142;37.948;2023-06-14T08:39:08;26.09;22.56
79140;HTU21D;68546;59.142;37.948;2023-06-14T08:41:36;26.08;22.60
79140;HTU21D;68546;59.142;37.948;2023-06-14T08:44:02;26.05;22.94
79140;HTU21D;68546;59.142;37.948;2023-06-14T08:46:32;26.04;23.32
79140;HTU21D;68546;59.142;37.948;2023-06-14T08:49:01;26.05;23.61
79140;HTU21D;68546;59.142;37.948;2023-06-14T08:51:27;26.07;23.75
79140;HTU21D;68546;59.142;37.948;2023-06-14T08:54:00;26.11;24.00
79140;HTU21D;68546;59.142;37.948;2023-06-14T08:56:28;26.16;23.64
79140;HTU21D;68546;59.142;37.948;2023-06-14T08:58:56;26.17;23.60
79140;HTU21D;68546;59.142;37.948;2023-06-14T09:01:23;26.19;23.66
79140;HTU21D;68546;59.142;37.948;2023-06-14T09:03:50;26.20;23.69
79140;HTU21D;68546;59.142;37.948;2023-06-14T09:06:17;26.22;23.70
79140;HTU21D;68546;59.142;37.948;2023-06-14T09:08:49;26.27;23.61
79140;HTU21D;68546;59.142;37.948;2023-06-14T09:11:17;26.30;23.48
79140;HTU21D;68546;59.142;37.948;2023-06-14T09:13:46;26.33;23.24
79140;HTU21D;68546;59.142;37.948;2023-06-14T09:16:13;26.33;22.84
79140;HTU21D;68546;59.142;37.948;2023-06-14T09:18:40;26.31;22.82
79140;HTU21D;68546;59.142;37.948;2023-06-14T09:21:08;26.31;22.64
79140;HTU21D;68546;59.142;37.948;2023-06-14T09:23:42;26.28;22.65
79140;HTU21D;68546;59.142;37.948;2023-06-14T09:26:10;26.26;22.76
79140;HTU21D;68546;59.142;37.948;2023-06-14T09:28:44;26.24;22.90
79140;HTU21D;68546;59.142;37.948;2023-06-14T09:31:12;26.24;22.78
79140;HTU21D;68546;59.142;37.948;2023-06-14T09:33:41;26.25;23.01
79140;HTU21D;68546;59.142;37.948;2023-06-14T09:36:14;26.27;23.01
79140;HTU21D;68546;59.142;37.948;2023-06-14T09:38:57;26.31;22.99
79140;HTU21D;68546;59.142;37.948;2023-06-14T09:41:42;26.28;23.09
79140;HTU21D;68546;59.142;37.948;2023-06-14T09:44:10;26.32;23.02
79140;HTU21D;68546;59.142;37.948;2023-06-14T09:46:39;26.32;22.66
79140;HTU21D;68546;59.142;37.948;2023-06-14T09:49:07;26.32;22.80
79140;HTU21D;68546;59.142;37.948;2023-06-14T09:51:35;26.28;22.73
79140;HTU21D;68546;59.142;37.948;2023-06-14T09:54:03;26.27;23.06
79140;HTU21D;68546;59.142;37.948;2023-06-14T09:56:42;26.24;23.14
79140;HTU21D;68546;59.142;37.948;2023-06-14T09:59:12;26.23;23.07
79140;HTU21D;68546;59.142;37.948;2023-06-14T10:01:43;26.22;23.11
79140;HTU21D;68546;59.142;37.948;2023-06-14T10:04:10;26.25;23.43
79140;HTU21D;68546;59.142;37.948;2023-06-14T10:06:38;26.27;23.40
79140;HTU21D;68546;59.142;37.948;2023-06-14T10:09:08;26.31;23.35
79140;HTU21D;68546;59.142;37.948;2023-06-14T10:11:36;26.32;23.11
79140;HTU21D;68546;59.142;37.948;2023-06-14T10:14:05;26.32;23.08
79140;HTU21D;68546;59.142;37.948;2023-06-14T10:16:36;26.33;22.90
79140;HTU21D;68546;59.142;37.948;2023-06-14T10:22:08;26.34;22.83
79140;HTU21D;68546;59.142;37.948;2023-06-14T10:24:43;26.33;22.88
79140;HTU21D;68546;59.142;37.948;2023-06-14T10:27:13;26.33;22.73
79140;HTU21D;68546;59.142;37.948;2023-06-14T10:32:24;26.32;22.76
79140;HTU21D;68546;59.142;37.948;2023-06-14T10:34:56;26.31;22.96
79140;HTU21D;68546;59.142;37.948;2023-06-14T10:37:22;26.31;22.48
79140;HTU21D;68546;59.142;37.948;2023-06-14T10:39:53;26.30;22.39
79140;HTU21D;68546;59.142;37.948;2023-06-14T10:42:20;26.27;22.39
79140;HTU21D;68546;59.142;37.948;2023-06-14T10:44:55;26.26;22.46
79140;HTU21D;68546;59.142;37.948;2023-06-14T10:47:26;26.24;22.51
79140;HTU21D;68546;59.142;37.948;2023-06-14T10:52:29;26.16;22.30
79140;HTU21D;68546;59.142;37.948;2023-06-14T10:57:30;26.06;22.72
79140;HTU21D;68546;59.142;37.948;2023-06-14T11:00:01;26.04;22.78
79140;HTU21D;68546;59.142;37.948;2023-06-14T11:09:20;26.10;23.01
79140;HTU21D;68546;59.142;37.948;2023-06-14T11:11:31;26.17;23.08
79140;HTU21D;68546;59.142;37.948;2023-06-14T11:13:59;26.22;23.18
79140;HTU21D;68546;59.142;37.948;2023-06-14T11:16:26;26.30;23.03
79140;HTU21D;68546;59.142;37.948;2023-06-14T11:18:54;26.37;22.64
79140;HTU21D;68546;59.142;37.948;2023-06-14T11:21:21;26.40;22.14
79140;HTU21D;68546;59.142;37.948;2023-06-14T11:23:51;26.42;22.02
79140;HTU21D;68546;59.142;37.948;2023-06-14T11:26:28;26.46;22.04
79140;HTU21D;68546;59.142;37.948;2023-06-14T11:28:57;26.48;22.04
79140;HTU21D;68546;59.142;37.948;2023-06-14T11:31:24;26.50;22.11
79140;HTU21D;68546;59.142;37.948;2023-06-14T11:33:50;26.49;22.15
79140;HTU21D;68546;59.142;37.948;2023-06-14T11:36:17;26.50;22.26
79140;HTU21D;68546;59.142;37.948;2023-06-14T11:38:43;26.50;22.49
79140;HTU21D;68546;59.142;37.948;2023-06-14T11:41:10;26.52;22.44
79140;HTU21D;68546;59.142;37.948;2023-06-14T11:43:36;26.56;22.48
79140;HTU21D;68546;59.142;37.948;2023-06-14T11:46:04;26.60;22.52
79140;HTU21D;68546;59.142;37.948;2023-06-14T11:48:42;26.64;22.69
79140;HTU21D;68546;59.142;37.948;2023-06-14T11:51:08;26.66;22.54
79140;HTU21D;68546;59.142;37.948;2023-06-14T11:53:35;26.70;22.39
79140;HTU21D;68546;59.142;37.948;2023-06-14T11:56:02;26.72;22.22
79140;HTU21D;68546;59.142;37.948;2023-06-14T11:58:29;26.72;22.11
79140;HTU21D;68546;59.142;37.948;2023-06-14T12:00:55;26.71;21.93
79140;HTU21D;68546;59.142;37.948;2023-06-14T12:03:26;26.67;21.97
79140;HTU21D;68546;59.142;37.948;2023-06-14T12:06:07;26.62;21.85
79140;HTU21D;68546;59.142;37.948;2023-06-14T12:08:35;26.57;21.92
79140;HTU21D;68546;59.142;37.948;2023-06-14T12:11:06;26.57;21.85
79140;HTU21D;68546;59.142;37.948;2023-06-14T12:13:34;26.58;22.11
79140;HTU21D;68546;59.142;37.948;2023-06-14T12:16:01;26.62;22.05
79140;HTU21D;68546;59.142;37.948;2023-06-14T12:18:36;26.65;22.14
79140;HTU21D;68546;59.142;37.948;2023-06-14T12:21:07;26.66;22.11
79140;HTU21D;68546;59.142;37.948;2023-06-14T12:23:46;26.68;21.75
79140;HTU21D;68546;59.142;37.948;2023-06-14T12:26:17;26.66;21.79
79140;HTU21D;68546;59.142;37.948;2023-06-14T12:28:47;26.64;21.83
79140;HTU21D;68546;59.142;37.948;2023-06-14T12:31:15;26.62;21.72
79140;HTU21D;68546;59.142;37.948;2023-06-14T12:33:42;26.57;21.73
79140;HTU21D;68546;59.142;37.948;2023-06-14T12:36:10;26.55;21.66
79140;HTU21D;68546;59.142;37.948;2023-06-14T12:38:37;26.51;21.68
79140;HTU21D;68546;59.142;37.948;2023-06-14T12:41:04;26.48;21.63
79140;HTU21D;68546;59.142;37.948;2023-06-14T12:43:30;26.46;21.69
79140;HTU21D;68546;59.142;37.948;2023-06-14T12:45:56;26.47;21.85
79140;HTU21D;68546;59.142;37.948;2023-06-14T12:48:22;26.46;21.87
79140;HTU21D;68546;59.142;37.948;2023-06-14T12:50:49;26.46;21.89
79140;HTU21D;68546;59.142;37.948;2023-06-14T12:53:15;26.45;22.04
79140;HTU21D;68546;59.142;37.948;2023-06-14T12:55:42;26.45;22.00
79140;HTU21D;68546;59.142;37.948;2023-06-14T12:58:08;26.42;21.97
79140;HTU21D;68546;59.142;37.948;2023-06-14T13:00:35;26.41;21.71
79140;HTU21D;68546;59.142;37.948;2023-06-14T13:03:01;26.39;21.68
79140;HTU21D;68546;59.142;37.948;2023-06-14T13:05:30;26.39;21.70
79140;HTU21D;68546;59.142;37.948;2023-06-14T13:10:43;26.37;21.69
79140;HTU21D;68546;59.142;37.948;2023-06-14T13:13:10;26.35;21.62
79140;HTU21D;68546;59.142;37.948;2023-06-14T13:15:38;26.33;21.76
79140;HTU21D;68546;59.142;37.948;2023-06-14T13:18:05;26.31;21.80
79140;HTU21D;68546;59.142;37.948;2023-06-14T13:20:31;26.31;21.70
79140;HTU21D;68546;59.142;37.948;2023-06-14T13:22:58;26.33;21.73
79140;HTU21D;68546;59.142;37.948;2023-06-14T13:25:26;26.36;21.65
79140;HTU21D;68546;59.142;37.948;2023-06-14T13:27:55;26.40;21.69
79140;HTU21D;68546;59.142;37.948;2023-06-14T13:30:22;26.45;21.61
79140;HTU21D;68546;59.142;37.948;2023-06-14T13:32:49;26.50;21.24
79140;HTU21D;68546;59.142;37.948;2023-06-14T13:35:18;26.48;21.08
79140;HTU21D;68546;59.142;37.948;2023-06-14T13:37:45;26.53;21.11
79140;HTU21D;68546;59.142;37.948;2023-06-14T13:40:11;26.54;21.13
79140;HTU21D;68546;59.142;37.948;2023-06-14T13:42:38;26.58;21.18
79140;HTU21D;68546;59.142;37.948;2023-06-14T13:45:05;26.62;21.31
79140;HTU21D;68546;59.142;37.948;2023-06-14T13:47:32;26.66;21.35
79140;HTU21D;68546;59.142;37.948;2023-06-14T13:49:58;26.67;21.25
79140;HTU21D;68546;59.142;37.948;2023-06-14T13:52:25;26.68;20.70
79140;HTU21D;68546;59.142;37.948;2023-06-14T13:54:51;26.70;21.02
79140;HTU21D;68546;59.142;37.948;2023-06-14T13:57:17;26.70;20.82
79140;HTU21D;68546;59.142;37.948;2023-06-14T13:59:44;26.71;20.74
79140;HTU21D;68546;59.142;37.948;2023-06-14T14:02:11;26.72;20.93
79140;HTU21D;68546;59.142;37.948;2023-06-14T14:04:38;26.71;20.59
79140;HTU21D;68546;59.142;37.948;2023-06-14T14:07:05;26.69;20.59
79140;HTU21D;68546;59.142;37.948;2023-06-14T14:09:33;26.66;20.58
79140;HTU21D;68546;59.142;37.948;2023-06-14T14:12:01;26.67;20.05
79140;HTU21D;68546;59.142;37.948;2023-06-14T14:14:28;26.66;19.96
79140;HTU21D;68546;59.142;37.948;2023-06-14T14:16:54;26.68;20.18
79140;HTU21D;68546;59.142;37.948;2023-06-14T14:19:21;26.69;20.08
79140;HTU21D;68546;59.142;37.948;2023-06-14T14:21:48;26.73;20.06
79140;HTU21D;68546;59.142;37.948;2023-06-14T14:24:14;26.75;20.20
79140;HTU21D;68546;59.142;37.948;2023-06-14T14:26:40;26.77;20.28
79140;HTU21D;68546;59.142;37.948;2023-06-14T14:29:07;26.81;20.34
79140;HTU21D;68546;59.142;37.948;2023-06-14T14:31:33;26.84;20.31
79140;HTU21D;68546;59.142;37.948;2023-06-14T14:34:00;26.89;19.76
79140;HTU21D;68546;59.142;37.948;2023-06-14T14:36:26;26.87;19.66
79140;HTU21D;68546;59.142;37.948;2023-06-14T14:38:52;26.89;19.80
79140;HTU21D;68546;59.142;37.948;2023-06-14T14:41:18;26.87;19.95
79140;HTU21D;68546;59.142;37.948;2023-06-14T14:43:45;26.89;19.97
79140;HTU21D;68546;59.142;37.948;2023-06-14T14:46:11;26.91;20.12
79140;HTU21D;68546;59.142;37.948;2023-06-14T14:48:37;26.90;20.23
79140;HTU21D;68546;59.142;37.948;2023-06-14T14:51:04;26.93;20.21
79140;HTU21D;68546;59.142;37.948;2023-06-14T14:53:30;26.93;20.10
79140;HTU21D;68546;59.142;37.948;2023-06-14T14:55:56;26.92;20.18
79140;HTU21D;68546;59.142;37.948;2023-06-14T14:58:22;26.93;20.28
79140;HTU21D;68546;59.142;37.948;2023-06-14T15:00:49;26.93;20.44
79140;HTU21D;68546;59.142;37.948;2023-06-14T15:03:15;26.93;20.07
79140;HTU21D;68546;59.142;37.948;2023-06-14T15:05:41;26.92;19.92
79140;HTU21D;68546;59.142;37.948;2023-06-14T15:08:07;26.90;19.76
79140;HTU21D;68546;59.142;37.948;2023-06-14T15:10:38;26.89;19.88
79140;HTU21D;68546;59.142;37.948;2023-06-14T15:13:07;26.86;19.72
79140;HTU21D;68546;59.142;37.948;2023-06-14T15:15:34;26.86;19.63
79140;HTU21D;68546;59.142;37.948;2023-06-14T15:18:01;26.85;19.71
79140;HTU21D;68546;59.142;37.948;2023-06-14T15:20:27;26.85;19.63
79140;HTU21D;68546;59.142;37.948;2023-06-14T15:22:54;26.84;19.93
79140;HTU21D;68546;59.142;37.948;2023-06-14T15:25:29;26.84;19.73
79140;HTU21D;68546;59.142;37.948;2023-06-14T15:27:56;26.83;19.84
79140;HTU21D;68546;59.142;37.948;2023-06-14T15:30:22;26.83;19.76